Time;durP1;ratioP1;P1;durP2;ratioP2;P2;SDS_P1;SDS_P2;PMS_P1;PMS_P2;Temp;Humidity;BMP_temperature;BMP_pressure;BME280_temperature;BME280_humidity;BME280_pressure;Samples;Min_cycle;Max_cycle;Signal;HPM_P1;HPM_P2
2022/09/26 00:01:31;;;;;;;;;;;14.10;69.00;;;9.67;100.00;95195.34;4936283;28;19914;-49
2022/09/26 00:04:21;;;;;;;;;;;14.10;69.00;;;9.63;100.00;95196.16;4940948;28;20004;-49
2022/09/26 00:06:54;;;;;;;;;;;14.00;69.00;;;9.63;100.00;95210.25;4941674;28;19938;-51
2022/09/26 00:09:23;;;;;;;;;;;14.00;69.00;;;9.62;100.00;95200.69;4939530;28;19917;-46
2022/09/26 00:11:50;;;;;;;;;;;14.10;69.10;;;9.60;100.00;95197.47;4934850;28;19911;-51
2022/09/26 00:14:21;;;;;;;;;;;14.10;69.10;;;9.61;100.00;95195.63;4934970;28;19914;-50
2022/09/26 00:16:48;;;;;;;;;;;14.10;69.00;;;9.59;100.00;95185.25;4937333;28;19910;-48
2022/09/26 00:19:16;;;;;;;;;;;14.10;69.00;;;9.58;100.00;95191.63;4957659;28;28272;-48
2022/09/26 00:21:42;;;;;;;;;;;14.00;68.90;;;9.55;100.00;95188.72;4935166;28;20005;-48
2022/09/26 00:24:08;;;;;;;;;;;14.00;68.90;;;9.53;100.00;95191.66;4939359;28;20013;-47
2022/09/26 00:26:35;;;;;;;;;;;14.00;68.90;;;9.52;100.00;95195.34;4967038;28;19918;-51
2022/09/26 00:29:06;;;;;;;;;;;14.00;68.90;;;9.51;100.00;95188.44;4953340;28;19918;-50
2022/09/26 00:31:37;;;;;;;;;;;14.00;69.00;;;9.49;100.00;95178.09;4948247;28;19910;-50
2022/09/26 00:34:06;;;;;;;;;;;14.00;69.10;;;9.46;100.00;95181.28;4956383;28;19921;-50
2022/09/26 00:36:32;;;;;;;;;;;13.90;69.00;;;9.44;100.00;95175.44;4957890;28;19914;-50
2022/09/26 00:38:59;;;;;;;;;;;13.90;69.00;;;9.41;100.00;95167.97;4979799;28;19909;-49
2022/09/26 00:41:25;;;;;;;;;;;13.90;69.00;;;9.40;100.00;95169.06;4959315;28;19924;-51
2022/09/26 00:43:56;;;;;;;;;;;13.90;69.00;;;9.40;100.00;95168.22;4956418;28;19914;-50
2022/09/26 00:46:42;;;;;;;;;;;13.90;69.00;;;9.40;100.00;95165.56;4959758;28;19914;-48
2022/09/26 00:49:33;;;;;;;;;;;13.90;69.00;;;9.42;100.00;95163.47;4962862;28;20694;-47
2022/09/26 00:52:19;;;;;;;;;;;13.90;69.00;;;9.42;100.00;95166.13;4953028;28;20324;-49
2022/09/26 00:54:53;;;;;;;;;;;13.90;69.10;;;9.41;100.00;95160.00;4947867;28;20314;-48
2022/09/26 00:57:34;;;;;;;;;;;13.90;69.20;;;9.42;100.00;95158.16;4960529;28;20437;-50
2022/09/26 01:00:09;;;;;;;;;;;13.90;69.20;;;9.44;100.00;95151.50;4955381;28;20006;-49
2022/09/26 01:02:35;;;;;;;;;;;13.90;69.20;;;9.45;100.00;95150.44;4959789;28;19918;-48
2022/09/26 01:05:04;;;;;;;;;;;13.90;69.20;;;9.42;100.00;95148.31;4954452;28;20028;-46
2022/09/26 01:07:34;;;;;;;;;;;13.90;69.20;;;9.42;100.00;95144.84;4965648;28;19957;-51
2022/09/26 01:10:04;;;;;;;;;;;13.90;69.20;;;9.45;100.00;95144.31;4963687;28;19910;-49
2022/09/26 01:12:36;;;;;;;;;;;13.90;69.20;;;9.44;100.00;95140.88;4958731;28;19948;-50
2022/09/26 01:15:07;;;;;;;;;;;13.90;69.30;;;9.45;100.00;95134.47;4963733;28;20316;-51
2022/09/26 01:17:38;;;;;;;;;;;13.90;70.10;;;9.46;100.00;95138.75;4961505;28;20296;-52
2022/09/26 01:20:25;;;;;;;;;;;13.90;70.10;;;9.47;100.00;95129.69;4958481;28;19913;-47
2022/09/26 01:23:22;;;;;;;;;;;13.90;69.30;;;9.46;100.00;95133.44;4952545;28;20474;-47
2022/09/26 01:26:21;;;;;;;;;;;14.00;69.40;;;9.46;100.00;95129.94;4960035;28;19918;-49
2022/09/26 01:28:52;;;;;;;;;;;13.90;69.30;;;9.42;100.00;95127.03;4975491;28;19959;-49
2022/09/26 01:35:35;;;;;;;;;;;13.90;69.20;;;9.37;100.00;95127.06;4971475;28;19927;-48
2022/09/26 01:38:30;;;;;;;;;;;13.90;69.30;;;9.37;100.00;95126.25;4979841;28;21841;-46
2022/09/26 01:41:37;;;;;;;;;;;13.90;69.30;;;9.36;100.00;95114.81;4940913;28;19913;-50
2022/09/26 01:44:18;;;;;;;;;;;13.90;69.30;;;9.36;100.00;95109.50;4945814;28;19960;-47
2022/09/26 01:47:10;;;;;;;;;;;13.90;69.20;;;9.32;100.00;95111.09;4977205;28;19952;-49
2022/09/26 01:50:10;;;;;;;;;;;13.90;69.20;;;9.26;100.00;95106.84;4956244;28;19910;-48
2022/09/26 01:53:00;;;;;;;;;;;13.80;69.10;;;9.23;100.00;95115.38;4957941;28;19920;-49
2022/09/26 01:56:09;;;;;;;;;;;13.80;69.10;;;9.20;100.00;95108.72;4969580;28;19960;-49
2022/09/26 01:59:00;;;;;;;;;;;13.80;69.30;;;9.20;100.00;95106.06;4962939;28;19914;-52
2022/09/26 02:01:34;;;;;;;;;;;13.70;69.30;;;9.20;100.00;95111.38;4961602;28;20367;-50
2022/09/26 02:04:11;;;;;;;;;;;13.70;69.30;;;9.24;100.00;95107.13;4949233;28;19909;-51
2022/09/26 02:06:54;;;;;;;;;;;13.70;69.40;;;9.29;100.00;95108.19;4962598;28;19956;-48
2022/09/26 02:10:01;;;;;;;;;;;13.70;69.60;;;9.32;100.00;95105.78;4973971;28;20004;-47
2022/09/26 02:12:35;;;;;;;;;;;13.70;69.60;;;9.35;100.00;95105.25;4973290;28;20775;-48
2022/09/26 02:15:10;;;;;;;;;;;13.70;69.70;;;9.38;100.00;95103.94;4964488;28;19913;-48
2022/09/26 02:17:45;;;;;;;;;;;13.80;69.80;;;9.36;100.00;95096.22;4969256;28;19971;-49
2022/09/26 02:20:24;;;;;;;;;;;13.80;69.70;;;9.39;100.00;95103.66;4965825;28;20071;-49
2022/09/26 02:22:50;;;;;;;;;;;13.80;69.70;;;9.40;100.00;95094.63;4963775;28;19909;-46
2022/09/26 02:27:54;;;;;;;;;;;13.90;69.70;;;9.45;100.00;95085.84;5005056;28;20287;-48
2022/09/26 02:30:23;;;;;;;;;;;13.90;69.80;;;9.45;100.00;95078.66;4989062;28;19924;-48
2022/09/26 02:32:52;;;;;;;;;;;13.90;69.70;;;9.47;100.00;95081.84;5004312;28;19920;-47
2022/09/26 02:38:13;;;;;;;;;;;13.90;69.70;;;9.49;100.00;95070.94;4967543;28;19944;-51
2022/09/26 02:41:27;;;;;;;;;;;14.00;69.70;;;9.49;100.00;95074.41;4966029;28;20284;-48
2022/09/26 02:43:59;;;;;;;;;;;14.00;69.70;;;9.49;100.00;95062.94;4985943;28;19910;-49
2022/09/26 02:46:50;;;;;;;;;;;14.00;69.60;;;9.47;100.00;95060.56;4966372;28;20320;-48
2022/09/26 02:50:16;;;;;;;;;;;14.00;69.60;;;9.46;100.00;95064.31;4982145;28;19916;-50
2022/09/26 02:53:00;;;;;;;;;;;14.00;69.50;;;9.43;100.00;95067.50;4985499;28;19919;-48
2022/09/26 02:55:38;;;;;;;;;;;14.00;69.50;;;9.40;100.00;95065.38;4985150;28;20004;-53
2022/09/26 02:58:22;;;;;;;;;;;13.90;69.50;;;9.43;100.00;95067.50;4983271;28;19909;-51
2022/09/26 03:01:26;;;;;;;;;;;13.90;69.50;;;9.44;100.00;95065.63;4967030;28;19916;-50
2022/09/26 03:04:08;;;;;;;;;;;13.90;69.70;;;9.46;100.00;95061.66;4975328;28;19936;-48
2022/09/26 03:06:45;;;;;;;;;;;13.90;69.80;;;9.47;100.00;95065.91;4879914;28;19981;-50
2022/09/26 03:09:15;;;;;;;;;;;13.90;69.80;;;9.49;100.00;95062.94;4976298;28;20202;-46
2022/09/26 03:11:43;;;;;;;;;;;13.90;69.70;;;9.53;100.00;95060.53;4983749;28;20268;-49
2022/09/26 03:14:12;;;;;;;;;;;14.00;69.90;;;9.54;100.00;95060.28;4963239;28;20771;-48
2022/09/26 03:16:44;;;;;;;;;;;14.00;69.80;;;9.56;100.00;95062.66;4963112;28;19960;-46
2022/09/26 03:19:44;;;;;;;;;;;14.00;69.80;;;9.57;100.00;95061.63;4983794;28;20025;-49
2022/09/26 03:22:09;;;;;;;;;;;14.00;69.80;;;9.59;100.00;95054.16;4948431;28;20024;-50
2022/09/26 03:24:36;;;;;;;;;;;14.10;69.90;;;9.63;100.00;95063.19;4967296;28;19916;-52
2022/09/26 03:27:04;;;;;;;;;;;14.10;69.90;;;9.64;100.00;95062.13;4984898;28;20136;-49
2022/09/26 03:29:31;;;;;;;;;;;14.10;70.40;;;9.65;100.00;95064.53;4979432;28;19924;-51
2022/09/26 03:31:59;;;;;;;;;;;14.10;69.80;;;9.65;100.00;95064.53;4966004;28;19963;-54
2022/09/26 03:34:26;;;;;;;;;;;14.10;69.90;;;9.68;100.00;95055.19;4984969;28;20007;-53
2022/09/26 03:36:55;;;;;;;;;;;14.10;69.90;;;9.70;100.00;95055.72;4976438;28;19941;-52
2022/09/26 03:39:21;;;;;;;;;;;14.10;69.90;;;9.71;100.00;95051.97;4985910;28;20383;-52
2022/09/26 03:41:49;;;;;;;;;;;14.10;70.00;;;9.71;100.00;95044.00;4983416;28;20012;-50
2022/09/26 03:44:16;;;;;;;;;;;14.10;70.00;;;9.73;100.00;95044.53;4967340;28;19922;-53
2022/09/26 03:46:42;;;;;;;;;;;14.20;70.00;;;9.76;100.00;95040.53;4947566;28;21008;-54
2022/09/26 03:49:10;;;;;;;;;;;14.20;70.10;;;9.75;100.00;95036.31;4957308;28;20372;-50
2022/09/26 03:51:36;;;;;;;;;;;14.20;70.00;;;9.74;100.00;95035.47;4982800;28;20967;-54
2022/09/26 03:54:02;;;;;;;;;;;14.20;70.10;;;9.73;100.00;95031.25;4981834;28;19920;-49
2022/09/26 03:56:31;;;;;;;;;;;14.20;70.00;;;9.73;100.00;95026.72;4980553;28;20502;-50
2022/09/26 03:58:57;;;;;;;;;;;14.20;70.10;;;9.76;100.00;95029.91;4947500;28;19913;-51
2022/09/26 04:01:23;;;;;;;;;;;14.20;70.00;;;9.76;100.00;95022.72;4979376;28;19916;-48
2022/09/26 04:03:49;;;;;;;;;;;14.20;70.00;;;9.77;100.00;95026.97;4980839;28;20400;-47
2022/09/26 04:06:18;;;;;;;;;;;14.20;70.00;;;9.78;100.00;95020.59;4962678;28;20348;-50
2022/09/26 04:08:48;;;;;;;;;;;14.20;70.00;;;9.79;100.00;95024.84;4980721;28;19917;-51
2022/09/26 04:11:18;;;;;;;;;;;14.20;70.00;;;9.79;100.00;95022.19;4967216;28;19951;-51
2022/09/26 04:13:45;;;;;;;;;;;14.30;70.00;;;9.79;100.00;95008.88;4963412;28;19918;-51
2022/09/26 04:16:11;;;;;;;;;;;14.20;70.00;;;9.78;100.00;95009.94;4937937;28;19914;-48
2022/09/26 04:18:37;;;;;;;;;;;14.20;70.00;;;9.80;100.00;95007.00;4981262;28;20437;-47
2022/09/26 04:21:10;;;;;;;;;;;14.30;70.00;;;9.82;100.00;94994.25;4965268;28;20004;-49
2022/09/26 04:23:39;;;;;;;;;;;14.20;70.00;;;9.81;100.00;94997.94;4981681;28;19914;-47
2022/09/26 04:26:18;;;;;;;;;;;14.30;70.80;;;9.80;100.00;95001.69;4976950;28;20282;-49
2022/09/26 04:28:44;;;;;;;;;;;14.30;70.00;;;9.77;100.00;94994.25;4960820;28;19936;-46
2022/09/26 04:31:11;;;;;;;;;;;14.30;70.10;;;9.79;100.00;94997.44;4967474;28;19909;-50
2022/09/26 04:33:38;;;;;;;;;;;14.30;70.10;;;9.80;100.00;94997.16;4967772;28;19913;-48
2022/09/26 04:36:10;;;;;;;;;;;14.20;70.00;;;9.79;100.00;94989.47;4980299;28;19909;-51
2022/09/26 04:38:38;;;;;;;;;;;14.30;70.10;;;9.81;100.00;94992.63;4981889;28;20369;-50
2022/09/26 04:41:11;;;;;;;;;;;14.30;70.10;;;9.81;100.00;94987.31;4967203;28;19909;-53
2022/09/26 04:43:38;;;;;;;;;;;14.20;70.10;;;9.79;100.00;94986.81;4983448;28;20376;-51
2022/09/26 04:46:11;;;;;;;;;;;14.30;70.20;;;9.77;100.00;94984.41;4980760;28;19913;-48
2022/09/26 04:48:37;;;;;;;;;;;14.20;70.10;;;9.79;100.00;94976.97;4962772;28;19913;-52
2022/09/26 04:51:10;;;;;;;;;;;14.20;70.10;;;9.78;100.00;94972.72;4953811;28;19949;-47
2022/09/26 04:53:38;;;;;;;;;;;14.20;70.10;;;9.77;100.00;94972.97;4964414;28;19914;-48
2022/09/26 04:56:10;;;;;;;;;;;14.20;70.20;;;9.78;100.00;94977.22;4966505;28;20164;-52
2022/09/26 04:58:37;;;;;;;;;;;14.20;70.20;;;9.79;100.00;94973.50;4980445;28;19975;-49
2022/09/26 05:01:21;;;;;;;;;;;14.20;70.20;;;9.77;100.00;94971.09;4981909;28;21187;-48
2022/09/26 05:03:47;;;;;;;;;;;14.20;70.30;;;9.78;100.00;94975.38;4979568;28;20403;-46
2022/09/26 05:06:18;;;;;;;;;;;14.20;70.30;;;9.77;100.00;94971.09;4964589;28;19917;-48
2022/09/26 05:08:47;;;;;;;;;;;14.20;70.30;;;9.76;100.00;94966.06;4964529;28;20284;-52
2022/09/26 05:11:16;;;;;;;;;;;14.10;70.20;;;9.75;100.00;94957.31;4983544;28;19913;-46
2022/09/26 05:13:45;;;;;;;;;;;14.10;70.20;;;9.72;100.00;94969.28;4968337;28;19918;-49
2022/09/26 05:16:13;;;;;;;;;;;14.10;70.10;;;9.67;100.00;94965.84;4964027;28;19917;-45
2022/09/26 05:18:48;;;;;;;;;;;14.10;70.10;;;9.62;100.00;94973.84;4982307;28;19925;-48
2022/09/26 05:21:14;;;;;;;;;;;14.00;70.10;;;9.60;100.00;94976.78;4959072;28;19916;-49
2022/09/26 05:26:41;;;;;;;;;;;14.00;70.30;;;9.59;100.00;94969.06;4981758;28;20407;-53
2022/09/26 05:29:08;;;;;;;;;;;14.00;70.30;;;9.59;100.00;94969.88;4975513;28;19945;-49
2022/09/26 05:31:38;;;;;;;;;;;14.00;70.30;;;9.58;100.00;94964.81;4967520;28;20246;-48
2022/09/26 05:34:06;;;;;;;;;;;14.00;70.30;;;9.55;100.00;94962.69;4982783;28;19914;-47
2022/09/26 05:36:33;;;;;;;;;;;14.00;70.40;;;9.55;100.00;94970.69;4965340;28;19909;-50
2022/09/26 05:38:59;;;;;;;;;;;14.00;70.40;;;9.57;100.00;94964.03;4983652;28;19913;-50
2022/09/26 05:41:30;;;;;;;;;;;14.10;70.40;;;9.62;100.00;94965.84;4980943;28;20024;-48
2022/09/26 05:43:57;;;;;;;;;;;14.00;70.40;;;9.64;100.00;94963.72;4980646;28;20300;-48
2022/09/26 05:46:24;;;;;;;;;;;14.10;70.40;;;9.66;100.00;94966.91;4983108;28;19909;-50
2022/09/26 05:48:50;;;;;;;;;;;14.10;70.40;;;9.68;100.00;94954.94;4964944;28;20008;-49
2022/09/26 05:51:20;;;;;;;;;;;14.10;70.40;;;9.72;100.00;94955.97;4966971;28;19917;-48
2022/09/26 05:53:48;;;;;;;;;;;14.20;70.40;;;9.76;100.00;94968.72;4986149;28;20318;-46
2022/09/26 05:56:18;;;;;;;;;;;14.20;70.40;;;9.77;100.00;94965.78;4985672;28;19972;-48
2022/09/26 05:58:46;;;;;;;;;;;14.30;70.40;;;9.78;100.00;94956.75;4963749;28;19909;-49
2022/09/26 06:01:16;;;;;;;;;;;14.30;70.40;;;9.81;100.00;94966.03;4970054;28;19940;-48
2022/09/26 06:03:45;;;;;;;;;;;14.30;70.30;;;9.80;100.00;94959.91;4985769;28;20368;-49
2022/09/26 06:06:15;;;;;;;;;;;14.40;70.30;;;9.83;100.00;94962.03;4981640;28;19909;-52
2022/09/26 06:08:48;;;;;;;;;;;14.40;70.20;;;9.86;100.00;94960.69;4966250;28;19910;-55
2022/09/26 06:11:23;;;;;;;;;;;14.50;70.20;;;9.89;100.00;94958.28;4969191;28;19909;-49
2022/09/26 06:13:49;;;;;;;;;;;14.50;70.10;;;9.90;100.00;94962.53;4985297;28;19955;-46
2022/09/26 06:16:19;;;;;;;;;;;14.50;70.00;;;9.89;100.00;94955.63;4984059;28;20008;-48
2022/09/26 06:18:48;;;;;;;;;;;14.60;69.90;;;9.91;100.00;94953.47;4984570;28;20053;-50
2022/09/26 06:21:17;;;;;;;;;;;14.60;69.90;;;9.93;100.00;94955.84;4982625;28;20402;-52
2022/09/26 06:23:43;;;;;;;;;;;14.70;69.90;;;9.99;100.00;94948.66;4983929;28;19963;-47
2022/09/26 06:26:18;;;;;;;;;;;14.80;69.90;;;10.09;100.00;94946.72;4983341;28;19961;-48
2022/09/26 06:28:44;;;;;;;;;;;14.80;69.90;;;10.10;100.00;94944.84;4953061;28;19913;-48
2022/09/26 06:31:16;;;;;;;;;;;14.90;69.80;;;10.13;100.00;94949.63;4981487;28;19909;-51
2022/09/26 06:33:42;;;;;;;;;;;14.90;69.70;;;10.15;100.00;94940.31;4947201;28;20137;-47
2022/09/26 06:36:11;;;;;;;;;;;14.90;69.60;;;10.20;100.00;94942.91;4984767;28;19917;-49
2022/09/26 06:38:37;;;;;;;;;;;15.00;69.50;;;10.24;100.00;94939.69;4984608;28;20408;-48
2022/09/26 06:41:13;;;;;;;;;;;15.10;69.50;;;10.26;100.00;94940.22;4985983;28;19910;-52
2022/09/26 06:43:44;;;;;;;;;;;15.10;69.40;;;10.28;100.00;94936.25;4986665;28;20382;-49
2022/09/26 06:46:12;;;;;;;;;;;15.20;69.30;;;10.31;100.00;94938.34;4986818;28;19920;-47
2022/09/26 06:48:41;;;;;;;;;;;15.20;69.20;;;10.39;100.00;94943.06;4965337;28;19909;-51
2022/09/26 06:51:08;;;;;;;;;;;15.40;69.20;;;10.51;100.00;94944.59;4986733;28;19962;-49
2022/09/26 06:53:34;;;;;;;;;;;15.50;69.20;;;10.50;100.00;94956.28;4981317;28;19920;-53
2022/09/26 06:56:01;;;;;;;;;;;15.60;69.10;;;10.56;100.00;94941.84;4984239;28;20376;-48
2022/09/26 06:58:27;;;;;;;;;;;15.60;69.00;;;10.50;99.46;94943.78;4982005;28;19956;-48
2022/09/26 07:00:52;;;;;;;;;;;15.60;69.00;;;10.55;100.00;94956.25;4985871;28;20397;-53
2022/09/26 07:03:18;;;;;;;;;;;15.60;68.80;;;10.58;99.76;94953.03;4959471;28;19924;-46
2022/09/26 07:05:45;;;;;;;;;;;15.60;68.80;;;10.57;98.58;94959.44;4964756;28;19960;-51
2022/09/26 07:08:11;;;;;;;;;;;15.70;68.70;;;10.62;98.51;94957.53;4981331;28;20437;-52
2022/09/26 07:10:37;;;;;;;;;;;15.70;68.60;;;10.59;97.45;94958.09;4984067;28;19920;-49
2022/09/26 07:13:09;;;;;;;;;;;15.80;68.50;;;10.62;97.42;94965.53;4965891;28;20581;-50
2022/09/26 07:15:36;;;;;;;;;;;15.80;68.40;;;10.58;96.38;94955.69;4982182;28;20039;-52
2022/09/26 07:18:05;;;;;;;;;;;15.90;68.30;;;10.63;95.71;94948.47;4980471;28;19909;-49
2022/09/26 07:20:45;;;;;;;;;;;15.90;68.20;;;10.84;96.65;94958.91;4965120;28;19913;-52
2022/09/26 07:23:13;;;;;;;;;;;16.10;68.10;;;10.99;96.05;94950.00;4985096;28;20011;-51
2022/09/26 07:25:39;;;;;;;;;;;16.20;68.10;;;11.12;95.62;94951.97;4963748;28;20334;-54
2022/09/26 07:28:08;;;;;;;;;;;16.40;68.10;;;11.30;95.52;94958.47;4965364;28;20415;-47
2022/09/26 07:30:34;;;;;;;;;;;16.50;68.10;;;11.37;94.31;94956.25;4980535;28;20288;-46
2022/09/26 07:33:02;;;;;;;;;;;16.60;68.00;;;11.45;92.93;94952.16;4985066;28;19913;-49
2022/09/26 07:35:36;;;;;;;;;;;16.80;67.80;;;11.55;92.04;94954.72;4982569;28;19909;-50
2022/09/26 07:38:03;;;;;;;;;;;16.90;67.60;;;11.70;92.58;94951.84;4967235;28;20000;-49
2022/09/26 07:40:32;;;;;;;;;;;17.10;67.40;;;11.82;90.76;94954.91;4980944;28;20007;-55
2022/09/26 07:43:00;;;;;;;;;;;17.30;67.20;;;11.89;90.50;94951.13;4983050;28;20104;-48
2022/09/26 07:51:10;;;;;;;;;;;17.80;66.80;;;12.30;85.83;94956.66;4983060;28;19987;-51
2022/09/26 07:53:40;;;;;;;;;;;17.90;66.60;;;12.46;86.23;94949.22;4958115;28;20044;-49
2022/09/26 07:56:09;;;;;;;;;;;18.00;66.30;;;12.60;86.34;94954.63;4984353;28;19909;-48
2022/09/26 07:58:45;;;;;;;;;;;18.20;66.00;;;12.77;82.98;94951.38;4980607;28;19909;-46
2022/09/26 08:01:15;;;;;;;;;;;18.50;65.70;;;13.00;84.43;94955.00;4964168;28;19944;-53
2022/09/26 08:03:44;;;;;;;;;;;18.80;65.40;;;13.20;82.75;94944.72;4982808;28;19916;-55
2022/09/26 08:06:20;;;;;;;;;;;18.90;65.30;;;12.96;81.49;94942.22;4962748;28;19910;-52
2022/09/26 08:08:47;;;;;;;;;;;18.90;64.80;;;12.73;82.45;94938.59;4983224;28;19909;-53
2022/09/26 08:11:17;;;;;;;;;;;18.80;64.50;;;12.75;82.63;94938.31;4983041;28;19909;-52
2022/09/26 08:13:47;;;;;;;;;;;18.60;64.40;;;12.73;83.36;94948.50;4960171;28;19960;-54
2022/09/26 08:16:22;;;;;;;;;;;18.50;64.40;;;12.76;83.50;94942.59;4962147;28;19952;-52
2022/09/26 08:18:53;;;;;;;;;;;18.50;64.50;;;13.23;84.63;94948.69;4964798;28;20150;-49
2022/09/26 08:21:20;;;;;;;;;;;19.00;64.30;;;13.25;82.20;94945.75;4960335;28;19913;-48
2022/09/26 08:23:47;;;;;;;;;;;19.30;64.00;;;13.38;81.30;94953.78;4979992;28;19910;-48
2022/09/26 08:26:13;;;;;;;;;;;19.40;63.80;;;13.39;80.53;94951.91;5008706;23;19937;-53
2022/09/26 08:28:39;;;;;;;;;;;19.40;63.50;;;13.20;78.59;94954.63;4979220;28;19951;-49
2022/09/26 08:31:06;;;;;;;;;;;19.40;63.30;;;13.06;80.47;94956.47;4998893;28;19920;-47
2022/09/26 08:33:39;;;;;;;;;;;19.40;62.50;;;13.13;80.18;94955.03;4997837;28;19924;-47
2022/09/26 08:36:11;;;;;;;;;;;19.40;62.20;;;13.48;80.19;94960.03;4988439;28;19909;-48
2022/09/26 08:38:40;;;;;;;;;;;19.50;62.30;;;13.68;79.37;94950.78;5004766;28;19917;-46
2022/09/26 08:41:32;;;;;;;;;;;19.50;62.40;;;13.70;77.11;94959.31;4995627;28;19999;-47
2022/09/26 08:44:07;;;;;;;;;;;19.60;62.40;;;13.78;76.56;94946.00;4999271;28;19909;-51
2022/09/26 08:47:01;;;;;;;;;;;19.60;62.30;;;13.74;77.90;94941.56;4982990;28;19947;-48
2022/09/26 08:50:10;;;;;;;;;;;19.60;62.20;;;13.74;76.17;94947.72;5003189;28;20346;-47
2022/09/26 08:52:57;;;;;;;;;;;19.60;62.00;;;14.03;78.14;94946.56;5002805;28;20335;-50
2022/09/26 08:55:31;;;;;;;;;;;19.80;61.90;;;14.14;76.36;94949.81;5002541;28;20395;-49
2022/09/26 08:58:27;;;;;;;;;;;20.00;61.80;;;13.84;74.40;94954.72;4984272;28;20000;-50
2022/09/26 09:01:03;;;;;;;;;;;20.00;61.20;;;13.77;73.23;94949.78;5000454;28;19963;-52
2022/09/26 09:03:42;;;;;;;;;;;20.00;60.80;;;13.71;74.50;94950.19;4989187;28;19944;-48
2022/09/26 09:06:13;;;;;;;;;;;20.00;60.30;;;13.76;73.35;94945.53;4985840;28;19913;-49
2022/09/26 09:08:43;;;;;;;;;;;20.10;60.10;;;13.96;74.56;94946.19;5006517;28;19917;-48
2022/09/26 09:11:25;;;;;;;;;;;20.10;60.00;;;14.26;73.58;94950.88;5004535;28;19976;-50
2022/09/26 09:14:32;;;;;;;;;;;20.40;59.70;;;14.65;71.84;94943.31;5000785;28;19916;-47
2022/09/26 09:17:31;;;;;;;;;;;20.80;59.60;;;14.64;68.78;94937.16;5003651;28;20271;-46
2022/09/26 09:20:15;;;;;;;;;;;21.20;59.20;;;14.77;70.38;94948.91;4997582;28;20394;-46
2022/09/26 09:23:30;;;;;;;;;;;21.20;58.90;;;14.63;68.72;94943.59;5000005;28;19941;-48
2022/09/26 09:26:34;;;;;;;;;;;21.00;58.50;;;14.75;69.93;94948.41;5001328;28;20264;-46
2022/09/26 09:29:27;;;;;;;;;;;21.00;58.20;;;15.07;71.11;94936.59;5003391;28;19913;-48
2022/09/26 09:32:01;;;;;;;;;;;21.30;58.20;;;15.21;67.81;94944.56;5002965;28;20002;-50
2022/09/26 09:34:38;;;;;;;;;;;21.40;58.20;;;15.15;66.21;94937.75;5003054;28;19913;-48
2022/09/26 09:37:27;;;;;;;;;;;21.60;58.00;;;15.11;68.46;94939.47;4998684;28;20303;-46
2022/09/26 09:39:54;;;;;;;;;;;21.70;57.40;;;15.33;66.59;94926.00;4999133;28;19909;-49
2022/09/26 09:42:35;;;;;;;;;;;21.80;56.70;;;15.75;64.71;94934.50;4995593;28;19913;-49
2022/09/26 09:45:28;;;;;;;;;;;22.20;57.00;;;15.68;63.86;94920.75;4986238;28;19909;-47
2022/09/26 09:47:58;;;;;;;;;;;22.50;56.90;;;15.63;65.12;94915.50;4987232;28;20295;-48
2022/09/26 09:51:12;;;;;;;;;;;22.70;56.40;;;15.99;64.24;94922.56;4988495;28;19916;-46
2022/09/26 09:54:09;;;;;;;;;;;22.90;56.20;;;15.99;60.87;94917.19;4942259;28;19917;-50
2022/09/26 09:57:12;;;;;;;;;;;22.90;55.90;;;15.90;63.95;94914.47;5005283;28;20340;-47
2022/09/26 10:00:05;;;;;;;;;;;22.70;55.70;;;15.81;61.08;94901.03;4981015;28;19942;-49
2022/09/26 10:02:52;;;;;;;;;;;22.40;55.90;;;15.89;59.94;94897.56;5007575;28;20077;-48
2022/09/26 10:05:44;;;;;;;;;;;22.20;56.00;;;15.65;62.17;94892.59;5003681;28;19953;-47
2022/09/26 10:08:16;;;;;;;;;;;22.00;55.80;;;15.50;61.84;94887.69;4995145;28;19913;-46
2022/09/26 10:11:12;;;;;;;;;;;21.70;55.70;;;15.46;62.71;94884.84;5002702;28;19920;-46
2022/09/26 10:13:44;;;;;;;;;;;21.50;55.90;;;15.43;63.62;94888.13;4980806;28;19959;-54
2022/09/26 10:16:14;;;;;;;;;;;21.20;56.10;;;15.28;62.70;94889.34;4993043;28;20404;-48
2022/09/26 10:19:05;;;;;;;;;;;21.00;56.10;;;15.21;65.17;94885.53;4967901;28;20392;-48
2022/09/26 10:21:44;;;;;;;;;;;20.80;56.20;;;15.06;64.99;94878.69;4984372;28;19913;-49
2022/09/26 10:24:37;;;;;;;;;;;20.60;56.30;;;14.91;66.01;94877.22;4986303;28;20329;-47
2022/09/26 10:27:45;;;;;;;;;;;20.50;56.30;;;14.63;65.99;94875.81;5001961;28;19917;-49
2022/09/26 10:30:17;;;;;;;;;;;20.50;56.10;;;14.66;67.93;94865.25;4996796;28;20395;-48
2022/09/26 10:32:54;;;;;;;;;;;20.60;56.00;;;14.77;68.61;94865.81;5003236;28;20418;-48
2022/09/26 10:35:39;;;;;;;;;;;20.70;56.00;;;14.85;69.16;94864.25;4995657;28;19972;-50
2022/09/26 10:38:28;;;;;;;;;;;20.70;56.00;;;14.81;68.96;94862.19;4992975;28;20397;-48
2022/09/26 10:41:02;;;;;;;;;;;20.70;56.00;;;14.88;68.14;94863.63;4996723;28;19917;-49
2022/09/26 10:43:36;;;;;;;;;;;20.70;56.00;;;14.88;66.86;94867.09;4981674;28;19939;-49
2022/09/26 10:46:14;;;;;;;;;;;20.80;56.00;;;14.74;68.44;94863.72;4987370;28;19909;-48
2022/09/26 10:48:47;;;;;;;;;;;20.70;55.90;;;14.43;68.08;94872.50;5004743;28;19909;-48
2022/09/26 10:51:31;;;;;;;;;;;20.60;55.50;;;14.41;68.21;94865.88;4986446;28;20322;-45
2022/09/26 10:54:31;;;;;;;;;;;20.40;55.40;;;14.46;69.45;94857.72;5003397;28;19924;-48
2022/09/26 10:56:58;;;;;;;;;;;20.30;55.70;;;14.46;71.29;94855.03;5002267;28;19909;-50
2022/09/26 10:59:30;;;;;;;;;;;20.30;55.80;;;14.49;72.75;94859.78;4972777;28;19963;-48
2022/09/26 11:01:58;;;;;;;;;;;20.30;55.80;;;14.41;72.85;94855.16;4988507;28;20372;-50
2022/09/26 11:07:32;;;;;;;;;;;20.20;55.80;;;14.19;70.02;94862.09;4998952;28;20853;-46
2022/09/26 11:10:07;;;;;;;;;;;20.10;55.70;;;14.11;65.77;94850.25;4989237;28;19974;-47
2022/09/26 11:12:38;;;;;;;;;;;20.10;55.70;;;14.10;67.01;94847.84;5005151;28;19913;-48
2022/09/26 11:15:08;;;;;;;;;;;20.00;55.60;;;14.25;69.49;94844.03;5000422;28;20306;-46
2022/09/26 11:17:54;;;;;;;;;;;20.00;55.70;;;14.30;68.32;94838.56;5002729;28;20396;-48
2022/09/26 11:20:49;;;;;;;;;;;20.00;55.90;;;14.50;68.09;94829.97;4998227;28;19936;-46
2022/09/26 11:23:43;;;;;;;;;;;20.10;56.00;;;14.89;70.18;94831.16;5007082;28;19928;-49
2022/09/26 11:26:48;;;;;;;;;;;20.80;56.00;;;15.21;66.43;94810.44;4984310;28;20415;-49
2022/09/26 11:29:32;;;;;;;;;;;21.30;56.00;;;15.46;65.20;94807.00;5006241;28;19917;-48
2022/09/26 11:31:57;;;;;;;;;;;21.60;55.90;;;15.59;61.86;94802.59;5003056;28;19962;-49
2022/09/26 11:34:30;;;;;;;;;;;21.90;55.40;;;16.13;60.64;94797.69;4971004;28;20406;-48
2022/09/26 11:37:35;;;;;;;;;;;22.50;55.10;;;16.50;58.37;94790.03;4988857;28;19932;-47
2022/09/26 11:40:35;;;;;;;;;;;23.00;54.90;;;16.95;61.43;94794.16;5005167;28;19917;-46
2022/09/26 11:43:32;;;;;;;;;;;23.60;54.70;;;17.30;57.43;94771.34;4987562;28;19909;-50
2022/09/26 11:46:13;;;;;;;;;;;24.50;54.60;;;17.87;59.32;94771.94;4998974;28;20004;-50
2022/09/26 11:49:09;;;;;;;;;;;25.20;53.90;;;18.17;59.34;94769.88;5005320;28;19917;-46
2022/09/26 11:52:16;;;;;;;;;;;25.80;53.20;;;18.16;56.38;94749.47;5002856;28;19909;-49
2022/09/26 11:55:13;;;;;;;;;;;26.50;52.00;;;18.60;54.82;94753.25;5005568;28;20384;-47
2022/09/26 11:58:20;;;;;;;;;;;27.00;50.90;;;19.14;52.35;94744.97;4999602;28;19971;-46
2022/09/26 12:01:53;;;;;;;;;;;27.50;51.00;;;19.54;50.99;94738.81;5004598;28;20364;-49
2022/09/26 12:04:44;;;;;;;;;;;28.00;50.70;;;19.86;52.96;94733.56;5001499;28;19913;-47
2022/09/26 12:07:19;;;;;;;;;;;28.30;50.20;;;19.96;50.41;94738.50;5001614;28;20280;-47
2022/09/26 12:10:40;;;;;;;;;;;28.70;49.60;;;20.08;45.97;94724.91;4986166;28;19963;-52
2022/09/26 12:13:20;;;;;;;;;;;29.00;48.60;;;20.29;47.72;94719.28;4947457;28;19921;-48
2022/09/26 12:16:08;;;;;;;;;;;29.30;48.00;;;19.49;46.42;94714.78;5005452;28;19909;-49
2022/09/26 12:19:25;;;;;;;;;;;29.10;47.10;;;18.56;45.53;94714.59;4994243;28;19916;-53
2022/09/26 12:22:31;;;;;;;;;;;29.10;44.50;;;18.41;47.71;94699.88;4993410;28;19920;-47